Airfield :
LOGIN :

Register | Disclaimer

   EN    FR    IT 

 










Legend :    VFR   Marginal VFR   IFR   Intensive IFR   Very Intensive IFR
Visi :
Ceiling :
>= 8 km
>= 3000ft
5 to 8 km
1000 to 3000 ft
1500m to 5 km
500 to 1000 ft
800 to 1500m
200 to 500 ft
< 800m
< 200 ft
Symbols :   Thunderstorms  Fog  Heavy snow  Heavy precipitations  Wind > 20 kt
SIGMETs :     Misc.  Thunderstorms  Icing  Turbulence  Mountain Waves  Volcanic Ashes







- Airport Elevation : 55 ft
- IATA code : DSA
- Download approach charts


EGCN - Robin Hood Doncaster Sheffield

CURRENT METAR :
  • 201250Z 34022G33KT 9999 SCT033 10/04 Q1023

EXPIRED METARs :
  • 201220Z 34023KT 9999 SCT029 BKN035 09/04 Q1023
  • 201150Z 34020KT 9999 SCT029 BKN034 09/04 Q1023
  • 201120Z 34018KT 9999 FEW029 SCT036 09/05 Q1023
  • 201050Z 35018KT 9999 FEW023 SCT028 09/05 Q1023
  • 201020Z 34015KT 9999 FEW025 08/05 Q1023

TAF TAF EGCN
Valid from the 20 at 12:00 until the 21 at 12:00 UTC


201102Z 2012/2112 34012KT 9999 SCT030
PROB40
TEMPO 2012/2016 36015G25KT
PROB40
TEMPO 2012/2020 7000 -RA BKN014
TEMPO 2100/2108 7000 -RADZ BKN008
BECMG 2103/2106 02002KT
PROB40
TEMPO 2108/2112 7000 -RADZ BKN008
No reported NOTAMs for that airfield.



MET'MAP, your aeronautical weather chart ! - Copyright ORBIFLY December 2007 - Disclaimer

ORBIFLY MET'MAP TEAM :

Programming & Development : Alexandra Zaïnal
Concept & Development : Baudouin d'Aumeries
Co-Development & Prog : Marc-Olivier Méhu
Technical & hardware support : Manuel Goepfert

Contact : metmap@orbifly.com




SOURCES & CREDITS :

   NOAA